Latest Weather Observations for Norah Head

IDN60901

Issued at 1:31 pm EDT Tuesday 30 November 2021 (issued every 10 minutes, with the page automatically refreshed every 10 minutes)

About weather observations | Map of Sydney area stations | Latest observations for Sydney area | Other Formats
Station Details ID: 061366 Name: NORAH HEAD AWS Lat: -33.28 Lon: 151.58 Height: 18.8 m
Data from the previous 72 hours. | See also: Recent months at Norah Head
Date/Time
EDT
Temp
°C
App
Temp
°C
Dew
Point
°C
Rel
Hum
%
Delta-T
°C
Wind Press
QNH
hPa
Press
MSL
hPa
Rain since
9am
mm
Dir  Spd
km/h
Gust
km/h
Spd
kts
Gust
kts
30/01:30pm 21.5 24.8 20.8 96 0.5 SE 4 9 2 5 1016.6 1016.5 0.0
30/01:00pm 21.0 23.8 20.5 97 0.3 S 6 7 3 4 1016.8 1016.7 0.0
30/12:30pm 20.6 22.8 20.3 98 0.2 S 9 9 5 5 1017.3 1017.2 0.0
30/12:00pm 20.4 21.6 19.9 97 0.3 S 13 15 7 8 1017.2 1017.1 0.0
30/11:30am 20.9 22.7 20.4 97 0.3 S 11 13 6 7 1017.8 1017.7 0.0
30/11:00am 20.0 21.1 19.7 98 0.2 SSW 13 17 7 9 1018.2 1018.1 0.0
30/10:30am 20.6 23.8 20.4 99 0.1 S 4 9 2 5 1018.2 1018.1 0.0
30/10:00am 20.1 22.7 20.1 100 0.0 SW 6 9 3 5 1018.4 1018.3 0.0
30/09:30am 20.7 23.6 20.7 100 0.0 NE 6 9 3 5 1018.3 1018.2 0.0
30/09:00am 20.0 22.0 20.0 100 0.0 ESE 9 11 5 6 1018.5 1018.4 1.2
30/08:30am 19.3 19.5 19.3 100 0.0 ESE 17 20 9 11 1018.4 1018.3 1.2
30/08:00am 19.1 20.3 19.1 100 0.0 SSE 11 15 6 8 1018.2 1018.1 1.0
30/07:30am 19.1 19.5 19.1 100 0.0 SSE 15 17 8 9 1018.0 1017.9 1.0
30/07:00am 18.8 18.7 18.8 100 0.0 SSE 17 19 9 10 1017.8 1017.7 1.0
30/06:30am 19.1 19.5 19.1 100 0.0 SE 15 17 8 9 1017.6 1017.5 0.8
30/06:00am 19.0 19.8 19.0 100 0.0 SE 13 15 7 8 1017.2 1017.1 0.8
30/05:30am 18.9 19.6 18.9 100 0.0 SE 13 15 7 8 1016.9 1016.8 0.8
30/05:00am 18.9 19.3 18.9 100 0.0 SE 15 19 8 10 1016.7 1016.6 0.8
30/04:30am 18.9 20.0 18.9 100 0.0 SE 11 13 6 7 1016.9 1016.8 0.6
30/04:00am 18.8 19.5 18.8 100 0.0 SSE 13 17 7 9 1016.8 1016.7 0.6
30/03:30am 18.4 19.2 18.2 99 0.1 SSE 11 13 6 7 1017.0 1016.9 0.6
30/03:00am 18.2 18.9 17.9 98 0.2 S 11 13 6 7 1017.3 1017.2 0.6
30/02:30am 18.2 18.4 17.6 96 0.4 S 13 17 7 9 1017.3 1017.2 0.6
30/02:00am 18.4 18.9 17.4 94 0.6 S 11 15 6 8 1017.5 1017.4 0.6
30/01:30am 18.7 19.9 17.4 92 0.8 SSW 7 11 4 6 1017.8 1017.7 0.0
30/01:00am 18.8 20.6 17.3 91 0.9 SW 4 6 2 3 1018.1 1018.0 0.0
30/12:30am 19.0 21.5 17.3 90 1.0 CALM 0 0 0 0 1018.3 1018.2 0.0
30/12:00am 19.0 21.5 17.3 90 1.0 CALM 0 2 0 1 1018.5 1018.4 0.0
 
Date/Time
EDT
Temp
°C
App
Temp
°C
Dew
Point
°C
Rel
Hum
%
Delta-T
°C
Wind Press
QNH
hPa
Press
MSL
hPa
Rain since
9am
mm
Dir  Spd
km/h
Gust
km/h
Spd
kts
Gust
kts
29/11:30pm 19.0 20.7 17.1 89 1.2 NE 4 6 2 3 1018.5 1018.4 0.0
29/11:00pm 19.0 20.3 17.1 89 1.1 NE 6 7 3 4 1018.6 1018.5 0.0
29/10:30pm 18.8 19.4 16.8 88 1.2 NE 9 13 5 7 1018.7 1018.6 0.0
29/10:00pm 18.7 18.8 16.5 87 1.3 NE 11 13 6 7 1018.4 1018.3 0.0
29/09:30pm 18.6 18.7 16.4 87 1.3 NE 11 13 6 7 1018.4 1018.3 0.0
29/09:00pm 18.4 17.9 16.0 86 1.4 NE 13 15 7 8 1018.2 1018.1 0.0
29/08:30pm 18.4 17.8 15.6 84 1.7 NE 13 15 7 8 1018.1 1018.0 0.0
29/08:00pm 18.4 17.3 15.3 82 1.8 NE 15 17 8 9 1018.0 1017.9 0.0
29/07:30pm 18.6 17.6 14.7 78 2.3 NE 13 17 7 9 1017.9 1017.8 0.0
29/07:00pm 19.1 19.0 15.0 77 2.4 NE 9 13 5 7 1017.9 1017.8 0.0
29/06:30pm 19.6 19.6 15.3 76 2.5 NE 9 11 5 6 1017.8 1017.7 0.0
29/06:00pm 20.2 20.4 15.8 76 2.6 NE 9 11 5 6 1017.8 1017.7 0.0
29/05:30pm 19.5 19.7 14.7 74 2.8 ENE 7 9 4 5 1017.8 1017.7 0.0
29/05:00pm 19.5 19.7 14.3 72 3.0 E 6 7 3 4 1018.0 1017.9 0.0
29/04:30pm 19.9 19.9 14.3 70 3.2 ESE 7 9 4 5 1018.2 1018.1 0.0
29/04:00pm 20.0 20.1 14.4 70 3.2 ESE 7 9 4 5 1018.5 1018.4 0.0
29/03:30pm 20.8 20.6 14.7 68 3.6 SSE 9 13 5 7 1018.6 1018.5 0.0
29/03:00pm 21.3 20.9 15.2 68 3.6 SSE 11 13 6 7 1018.7 1018.6 0.0
29/02:30pm 21.7 20.6 15.3 67 3.8 SSE 15 17 8 9 1018.8 1018.7 0.0
29/02:00pm 22.7 22.3 16.3 67 3.9 SSE 13 17 7 9 1019.2 1019.1 0.0
29/01:30pm 21.5 20.1 15.6 69 3.5 SSE 17 19 9 10 1019.5 1019.4 0.0
29/01:00pm 22.9 21.7 17.1 70 3.6 SSE 19 22 10 12 1019.5 1019.4 0.0
29/12:30pm 20.7 19.3 15.5 72 3.1 S 17 20 9 11 1020.1 1020.0 0.0
29/12:00pm 19.8 18.1 14.6 72 3.0 S 17 20 9 11 1020.5 1020.4 0.0
29/11:30am 20.1 18.3 15.5 75 2.7 S 19 24 10 13 1020.4 1020.3 0.0
29/11:00am 19.1 17.0 14.8 76 2.5 SSW 19 26 10 14 1020.6 1020.5 0.0
29/10:30am 19.1 17.1 15.0 77 2.4 SSW 19 24 10 13 1020.6 1020.5 0.0
29/10:00am 19.2 17.0 14.9 76 2.5 SSW 20 24 11 13 1020.7 1020.6 0.0
29/09:30am 18.3 16.8 14.2 77 2.4 SSW 15 20 8 11 1020.9 1020.8 0.0
29/09:00am 18.4 17.0 14.5 78 2.2 SSW 15 19 8 10 1020.9 1020.8 0.4
29/08:30am 17.6 17.2 14.1 80 2.0 SSW 9 13 5 7 1021.0 1020.9 0.4
29/08:00am 16.9 16.5 14.0 83 1.6 SW 9 17 5 9 1020.7 1020.6 0.4
29/07:30am 16.5 16.4 14.0 85 1.4 SW 7 13 4 7 1020.6 1020.5 0.4
29/07:00am 15.8 15.6 13.5 86 1.3 WSW 7 11 4 6 1020.4 1020.3 0.4
29/06:30am 15.4 15.1 13.2 87 1.2 WSW 7 13 4 7 1020.2 1020.1 0.4
29/06:00am 15.2 14.5 13.1 87 1.2 WSW 9 15 5 8 1020.1 1020.0 0.4
29/05:30am 15.2 14.8 12.9 86 1.3 WSW 7 13 4 7 1019.8 1019.7 0.4
29/05:00am 15.2 14.4 12.9 86 1.3 WSW 9 15 5 8 1019.7 1019.6 0.4
29/04:30am 15.3 14.5 12.8 85 1.4 WSW 9 17 5 9 1019.7 1019.6 0.4
29/04:00am 15.4 14.6 12.9 85 1.4 WSW 9 15 5 8 1019.7 1019.6 0.4
29/03:30am 15.6 15.2 12.9 84 1.5 W 7 13 4 7 1020.0 1019.9 0.4
29/03:00am 15.8 15.4 13.1 84 1.5 W 7 13 4 7 1020.0 1019.9 0.4
29/02:30am 16.0 15.3 13.1 83 1.6 SW 9 17 5 9 1019.7 1019.6 0.4
29/02:00am 16.3 15.5 13.0 81 1.8 WSW 9 13 5 7 1020.0 1019.9 0.4
29/01:30am 17.5 14.6 14.0 80 2.0 SSW 22 32 12 17 1019.8 1019.7 0.4
29/01:00am 17.4 14.9 14.1 81 1.9 SSW 20 28 11 15 1020.4 1020.3 0.4
29/12:30am 17.3 15.0 14.2 82 1.8 S 19 28 10 15 1020.7 1020.6 0.4
29/12:00am 17.5 15.0 14.0 80 2.0 S 20 30 11 16 1020.9 1020.8 0.4
 
Date/Time
EDT
Temp
°C
App
Temp
°C
Dew
Point
°C
Rel
Hum
%
Delta-T
°C
Wind Press
QNH
hPa
Press
MSL
hPa
Rain since
9am
mm
Dir  Spd
km/h
Gust
km/h
Spd
kts
Gust
kts
28/11:30pm 17.4 14.1 13.9 80 2.0 SSW 24 32 13 17 1021.0 1020.9 0.4
28/11:00pm 17.5 14.3 14.2 81 1.9 S 24 33 13 18 1021.1 1021.0 0.4
28/10:30pm 17.5 13.5 14.0 80 2.0 S 28 35 15 19 1021.4 1021.3 0.4
28/10:00pm 17.2 13.3 14.3 83 1.7 S 28 37 15 20 1021.5 1021.4 0.4
28/09:30pm 17.1 14.8 14.7 86 1.4 S 20 28 11 15 1021.8 1021.7 0.4
28/09:00pm 17.1 13.6 14.4 84 1.5 S 26 35 14 19 1021.3 1021.2 0.2
28/08:30pm 17.4 13.1 14.3 82 1.8 S 30 37 16 20 1020.8 1020.7 0.0
28/08:00pm 17.6 15.2 13.7 78 2.2 S 19 26 10 14 1020.9 1020.8 0.0
28/07:30pm 17.7 14.6 13.4 76 2.4 S 22 32 12 17 1020.9 1020.8 0.0
28/07:00pm 17.8 14.2 13.1 74 2.6 S 24 33 13 18 1020.6 1020.5 0.0
28/06:30pm 17.9 12.8 13.0 73 2.7 S 32 39 17 21 1020.2 1020.1 0.0
28/06:00pm 18.2 13.1 13.1 72 2.9 S 32 39 17 21 1019.9 1019.8 0.0
28/05:30pm 18.3 13.7 13.4 73 2.8 S 30 35 16 19 1019.9 1019.8 0.0
28/05:00pm 18.3 13.7 13.4 73 2.8 S 30 37 16 20 1020.0 1019.9 0.0
28/04:30pm 18.4 14.3 13.9 75 2.6 S 28 39 15 21 1020.3 1020.2 0.0
28/04:00pm 18.2 13.3 13.7 75 2.6 S 32 39 17 21 1020.4 1020.3 0.0
28/03:30pm 18.4 14.0 14.1 76 2.5 S 30 39 16 21 1020.4 1020.3 0.0
28/03:00pm 19.0 14.2 14.5 75 2.6 S 33 39 18 21 1020.6 1020.5 0.0
28/02:30pm 18.7 14.0 14.4 76 2.5 S 32 39 17 21 1020.7 1020.6 0.0
28/02:00pm 19.5 15.2 15.4 77 2.4 SSW 32 41 17 22 1020.6 1020.5 0.0
28/01:30pm 18.1 14.0 14.8 81 1.9 SSW 30 43 16 23 1020.9 1020.8 0.0
28/01:00pm 17.7 13.1 15.0 84 1.6 SSW 33 43 18 23 1021.2 1021.1 0.0
28/12:30pm 18.7 15.0 15.9 84 1.7 SSW 30 41 16 22 1021.2 1021.1 0.0
28/12:00pm 18.2 14.5 15.1 82 1.8 SSW 28 39 15 21 1021.4 1021.3 0.0
28/11:30am 17.8 13.0 14.7 82 1.8 S 33 41 18 22 1021.5 1021.4 0.0
28/11:00am 18.7 14.1 14.6 77 2.4 S 32 41 17 22 1021.4 1021.3 0.0
28/10:30am 18.9 14.4 15.0 78 2.3 S 32 39 17 21 1021.6 1021.5 0.0
28/10:00am 18.3 13.2 14.8 80 2.0 S 35 43 19 23 1021.6 1021.5 0.0
28/09:30am 18.7 14.0 15.9 84 1.7 S 35 43 19 23 1021.7 1021.6 0.0
28/09:00am 17.5 13.5 16.2 92 0.8 SSW 32 43 17 23 1021.6 1021.5 6.6
28/08:30am 17.2 14.0 16.2 94 0.6 SSW 28 39 15 21 1021.8 1021.7 6.6
28/08:00am 16.8 10.9 15.8 94 0.6 S 41 50 22 27 1020.9 1020.8 6.6
28/07:41am 16.9 12.5 15.6 92 0.8 S 33 54 18 29 1021.1 1021.0 6.4
28/07:30am 16.7 12.8 15.4 92 0.8 SSW 30 43 16 23 1021.5 1021.4 6.4
28/07:00am 16.3 12.2 14.8 91 0.9 SSW 30 41 16 22 1021.3 1021.2 6.2
28/06:30am 17.0 12.0 15.0 88 1.2 S 35 46 19 25 1020.7 1020.6 6.0
28/06:00am 16.7 12.2 15.4 92 0.8 S 33 44 18 24 1020.2 1020.1 6.0
28/05:30am 16.4 10.4 14.4 88 1.1 S 39 52 21 28 1020.0 1019.9 6.0
28/05:00am 16.5 10.9 14.5 88 1.1 SSW 37 48 20 26 1019.6 1019.5 6.0
28/04:30am 17.0 11.7 15.3 90 1.0 S 37 50 20 27 1019.2 1019.1 6.0
28/04:00am 17.1 12.7 15.6 91 0.9 S 33 44 18 24 1019.1 1019.0 6.0
28/03:30am 16.7 11.8 15.4 92 0.8 SSW 35 46 19 25 1019.2 1019.1 6.0
28/03:00am 16.8 12.0 15.7 93 0.6 SSW 35 48 19 26 1019.2 1019.1 6.0
28/02:30am 16.7 12.3 15.6 93 0.6 SSW 33 46 18 25 1019.2 1019.1 6.0
28/02:00am 17.0 11.6 15.9 93 0.6 S 39 54 21 29 1019.2 1019.1 5.6
28/01:30am 16.8 11.3 15.8 94 0.6 S 39 50 21 27 1019.3 1019.2 5.6
28/01:00am 16.5 11.7 15.7 95 0.5 S 35 46 19 25 1019.6 1019.5 5.6
28/12:30am 16.7 12.4 15.9 95 0.5 SSW 33 43 18 23 1019.7 1019.6 5.2
28/12:00am 16.4 10.5 15.8 96 0.4 S 41 52 22 28 1019.8 1019.7 5.0
 
Date/Time
EDT
Temp
°C
App
Temp
°C
Dew
Point
°C
Rel
Hum
%
Delta-T
°C
Wind Press
QNH
hPa
Press
MSL
hPa
Rain since
9am
mm
Dir  Spd
km/h
Gust
km/h
Spd
kts
Gust
kts
27/11:31pm 16.9 12.2 15.9 94 0.6 S 35 63 19 34 1019.6 1019.5 4.2
27/11:30pm 16.9 12.6 15.9 94 0.6 S 33 52 18 28 1019.7 1019.6 4.0
27/11:04pm 16.6 11.0 15.6 94 0.6 SSW 39 59 21 32 1019.8 1019.7 4.0
27/11:00pm 16.6 11.4 15.5 93 0.6 SSW 37 48 20 26 1019.9 1019.8 3.8
27/10:30pm 17.0 11.3 15.3 90 1.0 S 39 52 21 28 1020.0 1019.9 3.4
27/10:00pm 16.8 10.4 15.5 92 0.8 SSW 43 61 23 33 1020.1 1020.0 3.4
27/09:54pm 17.0 11.5 15.7 92 0.8 S 39 61 21 33 1019.8 1019.7 3.4
27/09:30pm 16.7 12.0 15.9 95 0.5 SSW 35 48 19 26 1020.1 1020.0 3.4
27/09:01pm 16.6 11.4 15.5 93 0.6 SSW 37 59 20 32 1019.9 1019.8 3.4
27/09:00pm 16.9 12.2 15.9 94 0.6 S 35 52 19 28 1019.9 1019.8 3.2
27/08:30pm 16.7 11.6 15.7 94 0.6 SSW 37 54 20 29 1019.8 1019.7 3.0
27/08:00pm 16.7 11.2 15.7 94 0.6 SSW 39 54 21 29 1019.5 1019.4 3.0
27/07:30pm 16.2 10.1 15.1 93 0.6 S 41 61 22 33 1019.0 1018.9 3.0
27/07:28pm 16.4 10.3 15.3 93 0.6 S 41 61 22 33 1019.0 1018.9 3.0
27/07:00pm 16.7 10.1 15.4 92 0.8 S 44 57 24 31 1018.8 1018.7 2.8
27/06:35pm 17.0 10.3 15.2 89 1.0 S 44 63 24 34 1018.2 1018.1 2.6
27/06:30pm 17.2 10.6 15.4 89 1.1 S 44 57 24 31 1018.4 1018.3 2.6
27/06:00pm 16.4 9.1 14.6 89 1.0 S 46 59 25 32 1018.0 1017.9 2.6
27/05:32pm 16.5 8.8 14.5 88 1.1 S 48 67 26 36 1017.8 1017.7 2.6
27/05:30pm 16.5 8.4 14.3 87 1.3 S 50 67 27 36 1017.7 1017.6 2.6
27/05:00pm 17.0 10.5 15.5 91 0.9 SSW 44 65 24 35 1017.5 1017.4 2.6
27/04:58pm 17.3 11.1 15.8 91 0.9 SSW 43 65 23 35 1017.4 1017.3 2.6
27/04:30pm 16.8 9.9 15.7 93 0.6 S 46 61 25 33 1017.6 1017.5 2.6
27/04:00pm 17.1 10.2 15.6 91 0.9 S 46 61 25 33 1017.5 1017.4 2.4
27/03:30pm 16.6 10.1 15.5 93 0.6 S 44 57 24 31 1017.5 1017.4 2.4
27/03:05pm 17.4 10.7 16.1 92 0.8 SSW 46 65 25 35 1017.4 1017.3 2.2
27/03:00pm 17.2 10.0 15.9 92 0.8 SSW 48 61 26 33 1017.4 1017.3 2.2
27/02:30pm 17.0 8.5 15.3 90 1.0 S 54 67 29 36 1017.1 1017.0 2.2
27/02:23pm 17.5 10.6 15.7 89 1.1 S 46 65 25 35 1016.9 1016.8 2.2
27/02:00pm 17.6 9.8 16.1 91 0.9 SSW 52 63 28 34 1017.0 1016.9 2.2

Latest Capital City Observations: Canberra | Sydney | Melbourne | Brisbane | Adelaide | Perth | Hobart | Darwin

Other formats

Comma delimited format used in spreadsheet applications
http://www.bom.gov.au/fwo/IDN60901/IDN60901.95770.axf

JavaScript Object Notation format (JSON) in row-major order
http://www.bom.gov.au/fwo/IDN60901/IDN60901.95770.json

Data quality

Most of these data are generated automatically and are frequently updated. Quality checks on data are not normally performed. It is possible for incorrect values to appear. Refer to information at About Latest Weather Observations and please check the disclaimer before using these data.